MKJPMWCR

Guest
Details From MKJP - Norman Manley Intl
To MWCR - Owen Roberts Intl
Flight Number -
Tags generated
Created
Modified
Stats Distance 274 nm / 507 km
Max Altitude 28,200 ft / 8,595 m
Waypoints 7
Social Downloads 2
Likes 0
Share

Download

Looking for another format? Having issues loading an existing format? Contact us
Advertisement - Login to hide

Notes

Basic altitude profile: - Ascent Rate: 2500ft/min - Ascent Speed: 250kts - Cruise Altitude: 26000ft - Cruise Speed: 300kts - Descent Rate: 1500ft/min - Descent Speed: 250kts Options: - Use NATs: yes - Use PACOTS: yes - Use low airways: yes - Use high airways: yes

Route

MKJP KEMBO A511 SIA UG633 NALRO MWCR

ID Type Via Altitude (ft/m) Position (lat/lon) Dist (leg/tot) Name
O MKJP APT - 0 / 0 17.93567 / -76.78756 - / 0 nm Norman Manley Intl
KEMBO FIX - 12,000 / 3,658 18.21889 / -77.35472 36 / 36 nm
SIA VOR A511 (AWY-LO) 24,500 / 7,468 18.50106 / -77.92411 36 / 73 nm SANGSTER VOR-DME
FROST FIX UG633 (AWY-HI) 28,200 / 8,595 18.76000 / -79.02000 64 / 137 nm
OTEKO FIX UG633 (AWY-HI) 24,500 / 7,468 18.87028 / -79.50000 28 / 165 nm
NALRO FIX UG633 (AWY-HI) 24,500 / 7,468 19.03083 / -80.20614 41 / 206 nm
O MWCR APT - 0 / 0 19.29278 / -81.35776 67 / 273 nm Owen Roberts Intl

Altitude Profile

Advertisement - Login to hide

Weather


0- 5 10 15 20 25 30 35+ Temperature / °C

Clouds and Precipitation
Forecast for 2020-10-23 12:00 UTC. Updated 2 hours ago

Ground ~20,000 ft ~40,000 ft Winds

MKJP

Details ICAO MKJP (KIN)
Name Norman Manley Intl
Region Jamaica
Timezone Unknown
Stats Elevation 7 ft / 2 m (AMSL)
Location 17.935700° -76.787600°
Runways 1
Magnetic Variation 7.861° W

METAR

MKJP 231100Z 12014KT 05000 +RA SCT018CB 24/23 Q1012

Decode

TAF

TAF MKJP 230515Z 2306/2406 13015KT 9999 SCT016 SCT018CB TEMPO 2306/2406 4000 TSRA BKN015 BKN018CB

Decode

Departure Runways

ID Width Length Bearing (true/mag) Surface Threshold Overrun Markings Lighting
12 148 ft / 45 m 8,920 ft / 2,719 m 112.12° / 119.98° ASPHALT 0 ft / 0 m 56 ft / 17 m PREC-APP EDGE THRESHOLD SALS REIL-OMNI
30 148 ft / 45 m 8,920 ft / 2,719 m 292.13° / 299.99° ASPHALT 0 ft / 0 m 30 ft / 9 m PREC-APP EDGE THRESHOLD SALS REIL-OMNI

MWCR

Details ICAO MWCR (GCM)
Name Owen Roberts Intl
Region Cayman Islands
Timezone America/Cayman (UTC-5.0)
Stats Elevation 6 ft / 2 m (AMSL)
Location 19.292800° -81.357800°
Runways 1
Magnetic Variation 5.344° W

METAR

MWCR 231100Z 00000KT 9999 SCT018 27/26 Q1008

Decode

TAF

TAF MWCR 230300Z 2300/2324 CNL

Decode

Destination Runways

ID Width Length Bearing (true/mag) Surface Threshold Overrun Markings Lighting
08 148 ft / 45 m 7,024 ft / 2,141 m 75.86° / 81.20° CONCRETE 0 ft / 0 m 0 ft / 0 m PREC-APP EDGE THRESHOLD ODALS REIL-OMNI
26 148 ft / 45 m 7,024 ft / 2,141 m 255.86° / 261.21° CONCRETE 423 ft / 129 m 0 ft / 0 m PREC-APP EDGE THRESHOLD ODALS REIL-OMNI

Popular Alternatives